createdAt,value
2023-04-04T03:46:09.030Z,409.77
2023-04-04T03:48:36.076Z,408.35
2023-04-04T03:51:04.548Z,408.27
2023-04-04T03:53:31.397Z,418.90
2023-04-04T03:55:58.251Z,418.25
2023-04-04T03:58:25.111Z,417.33
2023-04-04T04:00:51.968Z,403.35
2023-04-04T04:03:18.723Z,411.83
2023-04-04T04:05:45.680Z,424.08
2023-04-04T04:08:12.358Z,416.90
2023-04-04T04:10:39.599Z,404.20
2023-04-04T04:13:06.354Z,415.00
2023-04-04T04:15:33.088Z,422.48
2023-04-04T04:17:59.795Z,425.70
2023-04-04T04:20:26.528Z,417.65
2023-04-04T04:22:54.317Z,407.33
2023-04-04T04:25:21.465Z,405.80
2023-04-04T04:27:48.127Z,409.92
2023-04-04T04:30:14.933Z,403.50
2023-04-04T04:32:41.669Z,399.13
2023-04-04T04:35:09.123Z,402.87
2023-04-04T04:37:35.952Z,407.55
2023-04-04T04:40:03.393Z,403.45
2023-04-04T04:42:30.448Z,405.70
2023-04-04T04:44:57.156Z,402.77
2023-04-04T04:47:23.917Z,403.77
2023-04-04T04:49:50.642Z,405.60
2023-04-04T04:52:17.307Z,399.02
2023-04-04T04:54:43.913Z,400.35
2023-04-04T04:57:10.696Z,413.70
2023-04-04T04:59:37.451Z,413.70
2023-04-04T05:02:04.195Z,399.88
2023-04-04T05:04:31.015Z,405.73
2023-04-04T05:06:57.764Z,418.48
2023-04-04T05:09:24.369Z,410.67
2023-04-04T05:11:51.194Z,423.23
2023-04-04T05:14:17.798Z,407.60
2023-04-04T05:16:45.412Z,406.38
2023-04-04T05:19:13.523Z,408.92
2023-04-04T05:21:40.729Z,420.67
2023-04-04T05:24:07.759Z,404.77
2023-04-04T05:26:34.847Z,402.17
2023-04-04T05:29:01.540Z,406.35
2023-04-04T05:31:28.244Z,399.40
2023-04-04T05:33:54.881Z,400.38
2023-04-04T05:36:22.654Z,404.15
2023-04-04T05:38:49.407Z,411.90
2023-04-04T05:41:16.163Z,414.38
2023-04-04T05:43:42.810Z,414.33
2023-04-04T05:46:09.855Z,412.25
2023-04-04T05:48:36.563Z,414.35
2023-04-04T05:51:03.540Z,411.70
2023-04-04T05:53:30.612Z,413.92
2023-04-04T05:55:58.562Z,420.25
2023-04-04T05:58:26.325Z,416.80
2023-04-04T06:00:53.024Z,413.85
2023-04-04T06:03:21.825Z,414.65
2023-04-04T06:05:53.052Z,412.83
2023-04-04T06:08:20.095Z,421.08
2023-04-04T06:10:46.781Z,422.85
2023-04-04T06:13:13.417Z,424.52
2023-04-04T06:15:40.285Z,424.38
2023-04-04T06:18:07.032Z,424.67
2023-04-04T06:20:33.792Z,435.50
2023-04-04T06:23:04.327Z,428.17
2023-04-04T06:25:31.552Z,431.10
2023-04-04T06:27:59.424Z,427.13
2023-04-04T06:30:26.161Z,441.38
2023-04-04T06:32:53.020Z,445.63
2023-04-04T06:35:20.319Z,445.30
2023-04-04T06:37:48.298Z,441.55
2023-04-04T06:40:14.987Z,445.88
2023-04-04T06:42:52.249Z,443.00
2023-04-04T06:45:19.031Z,458.83
2023-04-04T06:47:46.598Z,471.77
2023-04-04T06:50:13.734Z,477.88
2023-04-04T06:52:40.337Z,482.10
2023-04-04T06:55:07.444Z,469.67
2023-04-04T06:57:34.096Z,474.95
2023-04-04T07:00:00.842Z,487.45
2023-04-04T07:02:27.562Z,494.48
2023-04-04T07:04:54.189Z,490.33
2023-04-04T07:07:20.846Z,492.65
2023-04-04T07:09:47.457Z,516.78
2023-04-04T07:12:14.076Z,503.23
2023-04-04T07:14:40.662Z,521.88
2023-04-04T07:17:17.224Z,523.95
2023-04-04T07:19:50.908Z,534.78
2023-04-04T07:22:17.536Z,527.15
2023-04-04T07:24:44.907Z,535.80
2023-04-04T07:27:11.619Z,534.97
2023-04-04T07:29:38.298Z,542.15
2023-04-04T07:32:05.015Z,543.50
2023-04-04T07:34:31.742Z,543.50
2023-04-04T07:36:58.452Z,546.25
2023-04-04T07:39:25.188Z,547.72
2023-04-04T07:41:51.812Z,560.28
2023-04-04T07:44:18.468Z,564.00
2023-04-04T07:46:47.908Z,568.43
2023-04-04T07:49:18.896Z,576.80
2023-04-04T07:51:45.510Z,583.33
2023-04-04T07:54:12.161Z,585.27
2023-04-04T07:56:38.783Z,594.05
2023-04-04T07:59:05.661Z,599.72
2023-04-04T08:01:32.736Z,615.58
2023-04-04T08:03:59.485Z,604.15
2023-04-04T08:06:27.168Z,611.63
2023-04-04T08:08:54.070Z,628.97
2023-04-04T08:11:21.223Z,648.17
2023-04-04T08:13:47.860Z,663.53
2023-04-04T08:16:14.573Z,689.67
2023-04-04T08:18:41.248Z,717.15
2023-04-04T08:21:08.194Z,741.88
2023-04-04T08:23:35.228Z,784.27
2023-04-04T08:26:02.528Z,805.17
2023-04-04T08:28:29.156Z,827.88
2023-04-04T08:30:56.086Z,859.67
2023-04-04T08:33:28.982Z,888.97
2023-04-04T08:36:01.151Z,889.97
2023-04-04T08:38:28.055Z,902.17
2023-04-04T08:40:54.696Z,904.42
2023-04-04T08:43:23.078Z,908.38
2023-04-04T08:45:52.009Z,918.78
2023-04-04T08:48:21.392Z,923.80
2023-04-04T08:50:49.422Z,925.38
2023-04-04T08:53:17.294Z,936.58
2023-04-04T08:55:44.010Z,956.83
2023-04-04T08:58:11.548Z,975.72
2023-04-04T09:00:40.608Z,997.08
2023-04-04T09:03:17.266Z,984.75
2023-04-04T09:05:44.743Z,958.15
2023-04-04T09:08:12.433Z,953.08
2023-04-04T09:10:43.865Z,976.67
2023-04-04T09:13:16.138Z,986.13
2023-04-04T09:15:49.308Z,999.00
2023-04-04T09:18:17.968Z,999.90
2023-04-04T09:20:48.673Z,999.90
2023-04-04T09:23:18.412Z,999.90
2023-04-04T09:28:21.565Z,999.90
2023-04-04T09:30:49.384Z,999.90
2023-04-04T09:33:17.840Z,999.90
2023-04-04T09:35:48.998Z,999.90
2023-04-04T09:38:17.439Z,999.90
2023-04-04T09:40:46.274Z,999.90
2023-04-04T09:43:13.555Z,999.90
2023-04-04T09:45:42.327Z,999.90
2023-04-04T09:48:10.756Z,999.90
2023-04-04T09:50:58.666Z,999.90
2023-04-04T09:53:25.858Z,999.90
2023-04-04T09:55:54.342Z,999.90
2023-04-04T09:58:31.995Z,999.90
2023-04-04T10:01:02.945Z,999.90
2023-04-04T10:03:30.683Z,999.90
2023-04-04T10:06:06.744Z,999.90
2023-04-04T10:08:34.968Z,999.90
2023-04-04T10:11:11.829Z,999.90
2023-04-04T10:13:41.767Z,999.90
2023-04-04T10:16:09.219Z,999.90
2023-04-04T10:18:36.886Z,999.90
2023-04-04T10:21:15.395Z,999.90
2023-04-04T10:23:48.562Z,999.90
2023-04-04T10:26:15.672Z,999.90
2023-04-04T10:28:43.737Z,999.90
2023-04-04T10:31:24.759Z,999.90
2023-04-04T10:34:22.231Z,999.90
2023-04-04T10:37:05.801Z,999.90
2023-04-04T10:39:42.604Z,999.90
2023-04-04T10:42:14.159Z,999.90
2023-04-04T10:44:41.640Z,999.90
2023-04-04T10:47:17.651Z,999.90
2023-04-04T10:49:45.723Z,999.90
2023-04-04T10:52:19.678Z,999.90
2023-04-04T10:54:47.861Z,999.90
2023-04-04T10:57:15.393Z,999.90
2023-04-04T11:00:10.839Z,999.90
2023-04-04T11:02:45.637Z,999.90
2023-04-04T11:05:22.798Z,999.90
2023-04-04T11:08:07.535Z,999.90
2023-04-04T11:10:39.337Z,999.90
2023-04-04T11:13:13.987Z,999.90
2023-04-04T11:16:01.867Z,999.90
2023-04-04T11:18:41.563Z,999.90
2023-04-04T11:21:11.384Z,999.90
2023-04-04T11:24:13.125Z,999.90
2023-04-04T11:26:42.661Z,999.90
2023-04-04T11:29:09.621Z,999.90
2023-04-04T11:31:40.530Z,999.90
2023-04-04T11:34:14.829Z,999.90
2023-04-04T11:36:43.014Z,999.90
2023-04-04T11:39:17.470Z,999.90
2023-04-04T11:42:03.762Z,999.90
2023-04-04T11:44:32.471Z,999.90
2023-04-04T11:47:11.149Z,999.90
2023-04-04T11:49:42.498Z,999.90
2023-04-04T11:52:11.750Z,999.90
2023-04-04T11:54:40.134Z,999.90
2023-04-04T11:57:08.139Z,999.90
2023-04-04T11:59:40.741Z,999.90
2023-04-04T12:02:12.150Z,999.90
2023-04-04T12:04:43.546Z,999.90
2023-04-04T12:07:11.326Z,999.90
2023-04-04T12:09:38.981Z,999.90
2023-04-04T12:12:07.503Z,999.90
2023-04-04T12:14:34.433Z,999.90
2023-04-04T12:17:02.970Z,999.90
2023-04-04T12:19:29.875Z,995.47
2023-04-04T12:21:57.997Z,994.10
2023-04-04T12:24:24.825Z,992.75
2023-04-04T12:26:52.971Z,995.08
2023-04-04T12:29:22.741Z,995.72
2023-04-04T12:31:50.597Z,995.92
2023-04-04T12:37:03.784Z,983.30
2023-04-04T12:39:31.364Z,978.42
2023-04-04T12:41:59.911Z,975.47
2023-04-04T12:44:30.415Z,975.05
2023-04-04T12:47:02.378Z,974.27
2023-04-04T12:49:30.573Z,952.53
2023-04-04T12:52:00.698Z,941.13
2023-04-04T12:54:29.145Z,937.95
2023-04-04T12:57:01.630Z,936.47
2023-04-04T12:59:30.182Z,931.88
2023-04-04T13:01:57.221Z,938.58
2023-04-04T13:04:24.791Z,931.27
2023-04-04T13:06:51.766Z,949.13
2023-04-04T13:09:20.372Z,952.63
2023-04-04T13:12:03.183Z,964.60
2023-04-04T13:15:03.263Z,965.10
2023-04-04T13:17:47.501Z,964.65
2023-04-04T13:20:16.261Z,950.35
2023-04-04T13:22:43.417Z,932.70
2023-04-04T13:25:11.098Z,940.08
2023-04-04T13:27:38.563Z,934.67
2023-04-04T13:30:07.305Z,935.45
2023-04-04T13:32:34.453Z,946.05
2023-04-04T13:35:01.080Z,939.20
2023-04-04T13:37:28.417Z,935.05
2023-04-04T13:39:55.066Z,932.15
2023-04-04T13:42:23.246Z,938.97
2023-04-04T13:44:49.851Z,939.50
2023-04-04T13:47:16.513Z,941.10
2023-04-04T13:49:43.188Z,934.53
2023-04-04T13:52:09.882Z,936.77
2023-04-04T13:54:36.663Z,932.07
2023-04-04T13:57:03.322Z,930.00
2023-04-04T13:59:29.984Z,924.13
2023-04-04T14:01:57.075Z,928.63
2023-04-04T14:07:10.840Z,930.10
2023-04-04T14:09:37.718Z,933.00
2023-04-04T14:12:04.667Z,932.35
2023-04-04T14:14:32.039Z,926.80
2023-04-04T14:17:00.555Z,928.83
2023-04-04T14:19:27.298Z,922.33
2023-04-04T14:21:54.010Z,924.42
2023-04-04T14:24:20.701Z,934.17
2023-04-04T14:26:47.380Z,931.85
2023-04-04T14:29:13.971Z,930.13
2023-04-04T14:31:40.881Z,923.50
2023-04-04T14:34:07.563Z,928.13
2023-04-04T14:36:34.610Z,924.67
2023-04-04T14:39:01.382Z,926.70
2023-04-04T14:41:28.727Z,925.45
2023-04-04T14:43:55.373Z,931.92
2023-04-04T14:46:22.026Z,932.45
2023-04-04T14:48:48.616Z,923.05
2023-04-04T14:51:16.123Z,924.45
2023-04-04T14:53:42.760Z,920.45
2023-04-04T14:56:09.549Z,923.33
2023-04-04T14:58:36.251Z,919.63
2023-04-04T15:01:03.694Z,918.88
2023-04-04T15:03:30.673Z,911.35
2023-04-04T15:05:57.633Z,909.53
2023-04-04T15:08:24.223Z,904.55
2023-04-04T15:10:50.875Z,911.72
2023-04-04T15:13:17.488Z,911.42
2023-04-04T15:15:44.404Z,910.72
2023-04-04T15:18:11.019Z,906.78
2023-04-04T15:20:40.117Z,915.67
2023-04-04T15:23:07.158Z,907.33
2023-04-04T15:25:34.339Z,909.78
2023-04-04T15:28:01.399Z,910.75
2023-04-04T15:30:28.581Z,908.33
2023-04-04T15:32:58.144Z,902.35
2023-04-04T15:35:24.836Z,901.85
2023-04-04T15:37:52.004Z,891.75
2023-04-04T15:40:19.341Z,881.83
2023-04-04T15:42:46.629Z,876.17
2023-04-04T15:45:14.321Z,883.17
2023-04-04T15:47:42.233Z,879.65
2023-04-04T15:50:09.343Z,875.60
2023-04-04T15:52:36.009Z,868.57
2023-04-04T15:55:03.581Z,864.90
2023-04-04T15:57:30.226Z,866.23
2023-04-04T15:59:56.968Z,863.47
2023-04-04T16:02:23.809Z,855.88
2023-04-04T16:04:50.464Z,848.35
2023-04-04T16:07:17.029Z,848.38
2023-04-04T16:09:43.692Z,863.60
2023-04-04T16:12:10.390Z,842.65
2023-04-04T16:14:37.011Z,860.13
2023-04-04T16:17:03.661Z,856.45
2023-04-04T16:19:30.495Z,856.40
2023-04-04T16:21:57.756Z,853.28
2023-04-04T16:24:24.392Z,860.95
2023-04-04T16:26:51.082Z,844.65
2023-04-04T16:29:18.685Z,837.33
2023-04-04T16:31:45.889Z,839.77
2023-04-04T16:34:12.541Z,829.45
2023-04-04T16:36:39.306Z,836.95
2023-04-04T16:39:06.554Z,839.03
2023-04-04T16:41:34.179Z,837.42
2023-04-04T16:44:00.793Z,837.00
2023-04-04T16:46:27.619Z,832.17
2023-04-04T16:48:54.471Z,829.10
2023-04-04T16:51:21.131Z,821.55
2023-04-04T16:53:47.799Z,816.13
2023-04-04T16:56:14.458Z,813.17
2023-04-04T16:58:41.445Z,810.33
2023-04-04T17:01:08.182Z,799.90
2023-04-04T17:03:34.832Z,791.42
2023-04-04T17:06:01.817Z,784.05
2023-04-04T17:08:28.481Z,781.50
2023-04-04T17:10:55.122Z,783.55
2023-04-04T17:13:22.357Z,789.05
2023-04-04T17:15:49.437Z,780.83
2023-04-04T17:18:16.096Z,773.30
2023-04-04T17:20:43.527Z,784.33
2023-04-04T17:23:10.915Z,778.03
2023-04-04T17:25:37.556Z,781.65
2023-04-04T17:28:04.744Z,773.03
2023-04-04T17:30:31.962Z,762.93
2023-04-04T17:32:58.696Z,766.22
2023-04-04T17:35:25.535Z,763.28
2023-04-04T17:37:52.185Z,760.72
2023-04-04T17:40:19.506Z,738.92
2023-04-04T17:42:46.269Z,733.25
2023-04-04T17:45:13.034Z,756.95
2023-04-04T17:47:39.825Z,732.17
2023-04-04T17:50:07.156Z,729.72
2023-04-04T17:52:33.866Z,726.85
2023-04-04T17:55:00.507Z,726.22
2023-04-04T17:57:27.178Z,725.53
2023-04-04T17:59:53.924Z,721.20
2023-04-04T18:02:21.053Z,713.72
2023-04-04T18:04:47.864Z,706.85
2023-04-04T18:07:14.472Z,698.53
2023-04-04T18:09:41.778Z,697.30
2023-04-04T18:12:09.586Z,688.03
2023-04-04T18:14:36.250Z,691.92
2023-04-04T18:17:03.057Z,690.78
2023-04-04T18:19:30.185Z,687.15
2023-04-04T18:21:59.989Z,680.15
2023-04-04T18:24:29.755Z,676.28
2023-04-04T18:26:56.852Z,683.60
2023-04-04T18:29:24.973Z,675.42
2023-04-04T18:31:52.024Z,669.58
2023-04-04T18:34:18.749Z,679.08
2023-04-04T18:36:48.040Z,675.00
2023-04-04T18:39:17.300Z,668.50
2023-04-04T18:41:45.028Z,670.75
2023-04-04T18:44:11.771Z,666.23
2023-04-04T18:46:39.219Z,661.05
2023-04-04T18:49:06.870Z,654.03
2023-04-04T18:51:33.611Z,655.83
2023-04-04T18:54:00.538Z,642.25
2023-04-04T18:56:27.388Z,619.67
2023-04-04T18:58:54.089Z,612.25
2023-04-04T19:01:20.909Z,613.03
2023-04-04T19:03:48.213Z,603.03
2023-04-04T19:06:15.541Z,596.03
2023-04-04T19:08:43.116Z,600.20
2023-04-04T19:11:12.223Z,608.33
2023-04-04T19:13:38.915Z,597.67
2023-04-04T19:16:05.605Z,587.42
2023-04-04T19:18:32.270Z,583.08
2023-04-04T19:20:59.010Z,583.70
2023-04-04T19:23:25.654Z,575.08
2023-04-04T19:25:52.349Z,577.55
2023-04-04T19:28:18.969Z,571.20
2023-04-04T19:30:47.780Z,575.80
2023-04-04T19:33:25.686Z,563.55
2023-04-04T19:35:58.930Z,569.03
2023-04-04T19:38:29.749Z,559.78
2023-04-04T19:41:38.308Z,559.08
2023-04-04T19:44:07.442Z,553.80
2023-04-04T19:46:34.709Z,547.97
2023-04-04T19:49:12.318Z,542.10
2023-04-04T19:51:50.892Z,538.20
2023-04-04T19:54:31.946Z,544.17
2023-04-04T19:57:19.458Z,540.78
2023-04-04T20:00:08.750Z,545.60
2023-04-04T20:02:47.733Z,550.37
2023-04-04T20:05:29.692Z,546.58
2023-04-04T20:07:56.361Z,535.10
2023-04-04T20:10:41.534Z,546.17
2023-04-04T20:13:09.296Z,536.35
2023-04-04T20:15:45.835Z,536.08
2023-04-04T20:18:21.370Z,539.90
2023-04-04T20:20:59.459Z,544.17
2023-04-04T20:23:27.311Z,531.67
2023-04-04T20:25:54.780Z,543.15
2023-04-04T20:28:26.623Z,550.45
2023-04-04T20:30:54.519Z,537.80
2023-04-04T20:33:34.116Z,540.03
2023-04-04T20:36:18.771Z,538.15
2023-04-04T20:38:45.645Z,535.30
2023-04-04T20:41:21.485Z,540.75
2023-04-04T20:43:56.392Z,531.23
2023-04-04T20:46:27.276Z,531.83
2023-04-04T20:48:56.713Z,541.25
2023-04-04T20:51:31.729Z,531.10
2023-04-04T20:54:00.920Z,532.08
2023-04-04T20:56:42.689Z,533.22
2023-04-04T20:59:40.524Z,531.55
2023-04-04T21:02:20.595Z,524.67
2023-04-04T21:04:51.157Z,507.52
2023-04-04T21:07:41.624Z,496.13
2023-04-04T21:10:28.541Z,488.98
2023-04-04T21:12:57.104Z,474.73
2023-04-04T21:15:33.628Z,473.42
2023-04-04T21:18:02.402Z,468.45
2023-04-04T21:20:47.283Z,479.95
2023-04-04T21:23:33.514Z,471.00
2023-04-04T21:26:07.023Z,471.80
2023-04-04T21:28:43.809Z,479.52
2023-04-04T21:31:15.622Z,477.88
2023-04-04T21:33:43.175Z,483.35
2023-04-04T21:36:18.664Z,484.48
2023-04-04T21:38:45.361Z,482.65
2023-04-04T21:41:23.278Z,476.75
2023-04-04T21:43:51.026Z,470.88
2023-04-04T21:46:17.830Z,466.88
2023-04-04T21:48:44.531Z,470.90
2023-04-04T21:51:11.314Z,468.10
2023-04-04T21:53:37.953Z,465.75
2023-04-04T21:56:04.778Z,468.40
2023-04-04T21:58:31.573Z,462.25
2023-04-04T22:00:58.223Z,444.80
2023-04-04T22:03:24.920Z,444.92
2023-04-04T22:05:51.536Z,441.90
2023-04-04T22:08:18.300Z,445.20
2023-04-04T22:10:50.041Z,444.30
2023-04-04T22:13:18.650Z,456.23
2023-04-04T22:15:46.953Z,458.37
2023-04-04T22:18:15.277Z,458.88
2023-04-04T22:20:46.381Z,462.55
2023-04-04T22:23:15.408Z,451.23
2023-04-04T22:25:42.180Z,453.73
2023-04-04T22:28:09.161Z,456.65
2023-04-04T22:30:38.985Z,442.98
2023-04-04T22:33:06.004Z,440.60
2023-04-04T22:35:33.077Z,438.45
2023-04-04T22:38:00.987Z,444.38
2023-04-04T22:40:28.675Z,438.95
2023-04-04T22:42:55.967Z,444.27
2023-04-04T22:45:23.293Z,459.25
2023-04-04T22:47:50.017Z,454.60
2023-04-04T22:50:18.538Z,465.38
2023-04-04T22:52:45.967Z,458.42
2023-04-04T22:55:15.719Z,462.43
2023-04-04T22:57:42.611Z,469.52
